Terminal Aerodrome Forecast
Issued by NWS

Home | Current Version | Previous Version | Text Only | Print | Product List | Glossary On
Versions: 1 2 3 4 5 6 7 8 9 10 11 12 13 14 15
000
FTUS43 KAPX 022334
TAFAPN
TAF
KAPN 022334Z 0300/0324 31010KT P6SM OVC035
     FM030400 30008KT P6SM VCSH OVC035
     FM030900 30007KT P6SM OVC040
     FM031200 30007KT P6SM BKN025
     FM031900 31007KT P6SM BKN035=

USA.gov is the U.S. government's official web portal to all federal, state and local government web resources and services.